sensor_id;sensor_type;location;lat;lon;timestamp;P1;durP1;ratioP1;P2;durP2;ratioP2
20454;SDS011;10386;54.314;10.022;2022-12-18T00:02:15;34.87;;;14.20;;
20454;SDS011;10386;54.314;10.022;2022-12-18T00:04:42;29.20;;;13.27;;
20454;SDS011;10386;54.314;10.022;2022-12-18T00:07:09;20.50;;;10.97;;
20454;SDS011;10386;54.314;10.022;2022-12-18T00:09:36;31.17;;;13.67;;
20454;SDS011;10386;54.314;10.022;2022-12-18T00:12:06;33.93;;;15.80;;
20454;SDS011;10386;54.314;10.022;2022-12-18T00:14:41;22.30;;;10.87;;
20454;SDS011;10386;54.314;10.022;2022-12-18T00:17:08;25.07;;;11.77;;
20454;SDS011;10386;54.314;10.022;2022-12-18T00:19:35;35.63;;;14.10;;
20454;SDS011;10386;54.314;10.022;2022-12-18T00:22:02;32.33;;;11.80;;
20454;SDS011;10386;54.314;10.022;2022-12-18T00:24:29;39.63;;;14.37;;
20454;SDS011;10386;54.314;10.022;2022-12-18T00:26:55;33.93;;;13.10;;
20454;SDS011;10386;54.314;10.022;2022-12-18T00:29:22;30.50;;;12.83;;
20454;SDS011;10386;54.314;10.022;2022-12-18T00:31:49;27.57;;;13.97;;
20454;SDS011;10386;54.314;10.022;2022-12-18T00:34:16;37.13;;;13.90;;
20454;SDS011;10386;54.314;10.022;2022-12-18T00:36:42;29.50;;;14.03;;
20454;SDS011;10386;54.314;10.022;2022-12-18T00:39:10;29.73;;;12.83;;
20454;SDS011;10386;54.314;10.022;2022-12-18T00:41:38;28.23;;;11.63;;
20454;SDS011;10386;54.314;10.022;2022-12-18T00:44:24;30.63;;;12.93;;
20454;SDS011;10386;54.314;10.022;2022-12-18T00:46:50;32.20;;;14.13;;
20454;SDS011;10386;54.314;10.022;2022-12-18T00:49:18;38.10;;;13.67;;
20454;SDS011;10386;54.314;10.022;2022-12-18T00:51:45;31.63;;;12.40;;
20454;SDS011;10386;54.314;10.022;2022-12-18T00:54:13;32.43;;;13.40;;
20454;SDS011;10386;54.314;10.022;2022-12-18T00:56:40;30.37;;;12.83;;
20454;SDS011;10386;54.314;10.022;2022-12-18T00:59:15;29.90;;;14.10;;
20454;SDS011;10386;54.314;10.022;2022-12-18T01:01:44;31.90;;;13.73;;
20454;SDS011;10386;54.314;10.022;2022-12-18T01:04:11;30.57;;;14.20;;
20454;SDS011;10386;54.314;10.022;2022-12-18T01:06:38;30.73;;;12.23;;
20454;SDS011;10386;54.314;10.022;2022-12-18T01:09:05;25.43;;;8.97;;
20454;SDS011;10386;54.314;10.022;2022-12-18T01:11:32;32.10;;;13.83;;
20454;SDS011;10386;54.314;10.022;2022-12-18T01:13:59;28.20;;;12.47;;
20454;SDS011;10386;54.314;10.022;2022-12-18T01:16:26;21.53;;;8.97;;
20454;SDS011;10386;54.314;10.022;2022-12-18T01:18:53;29.43;;;13.07;;
20454;SDS011;10386;54.314;10.022;2022-12-18T01:21:21;29.43;;;13.10;;
20454;SDS011;10386;54.314;10.022;2022-12-18T01:23:53;32.93;;;13.30;;
20454;SDS011;10386;54.314;10.022;2022-12-18T01:26:22;30.07;;;12.27;;
20454;SDS011;10386;54.314;10.022;2022-12-18T01:28:49;23.73;;;11.70;;
20454;SDS011;10386;54.314;10.022;2022-12-18T01:31:18;33.80;;;11.53;;
20454;SDS011;10386;54.314;10.022;2022-12-18T01:33:46;26.37;;;12.27;;
20454;SDS011;10386;54.314;10.022;2022-12-18T01:38:44;24.00;;;11.23;;
20454;SDS011;10386;54.314;10.022;2022-12-18T01:41:11;24.73;;;12.00;;
20454;SDS011;10386;54.314;10.022;2022-12-18T01:43:43;29.10;;;12.80;;
20454;SDS011;10386;54.314;10.022;2022-12-18T01:46:11;36.40;;;13.40;;
20454;SDS011;10386;54.314;10.022;2022-12-18T01:48:38;31.90;;;12.30;;
20454;SDS011;10386;54.314;10.022;2022-12-18T01:51:07;29.23;;;11.53;;
20454;SDS011;10386;54.314;10.022;2022-12-18T01:53:36;34.80;;;13.73;;
20454;SDS011;10386;54.314;10.022;2022-12-18T01:56:05;24.50;;;11.07;;
20454;SDS011;10386;54.314;10.022;2022-12-18T01:58:39;25.97;;;11.93;;
20454;SDS011;10386;54.314;10.022;2022-12-18T02:01:12;34.20;;;12.97;;
20454;SDS011;10386;54.314;10.022;2022-12-18T02:03:43;25.57;;;10.73;;
20454;SDS011;10386;54.314;10.022;2022-12-18T02:06:15;20.63;;;9.50;;
20454;SDS011;10386;54.314;10.022;2022-12-18T02:08:52;26.33;;;11.63;;
20454;SDS011;10386;54.314;10.022;2022-12-18T02:11:47;24.23;;;10.70;;
20454;SDS011;10386;54.314;10.022;2022-12-18T02:17:22;31.47;;;11.80;;
20454;SDS011;10386;54.314;10.022;2022-12-18T02:25:42;23.63;;;9.40;;
20454;SDS011;10386;54.314;10.022;2022-12-18T02:28:31;24.80;;;10.67;;
20454;SDS011;10386;54.314;10.022;2022-12-18T02:31:02;21.37;;;10.17;;
20454;SDS011;10386;54.314;10.022;2022-12-18T02:33:33;34.13;;;11.70;;
20454;SDS011;10386;54.314;10.022;2022-12-18T02:36:02;30.13;;;11.83;;
20454;SDS011;10386;54.314;10.022;2022-12-18T02:38:31;28.60;;;10.20;;
20454;SDS011;10386;54.314;10.022;2022-12-18T02:41:01;27.37;;;12.40;;
20454;SDS011;10386;54.314;10.022;2022-12-18T02:43:30;28.77;;;11.07;;
20454;SDS011;10386;54.314;10.022;2022-12-18T02:45:57;25.80;;;10.43;;
20454;SDS011;10386;54.314;10.022;2022-12-18T02:48:28;25.33;;;10.07;;
20454;SDS011;10386;54.314;10.022;2022-12-18T02:53:49;23.57;;;9.83;;
20454;SDS011;10386;54.314;10.022;2022-12-18T02:56:27;23.23;;;9.80;;
20454;SDS011;10386;54.314;10.022;2022-12-18T02:59:06;27.23;;;10.93;;
20454;SDS011;10386;54.314;10.022;2022-12-18T03:07:11;18.47;;;9.60;;
20454;SDS011;10386;54.314;10.022;2022-12-18T03:09:46;21.00;;;8.80;;
20454;SDS011;10386;54.314;10.022;2022-12-18T03:12:18;16.63;;;8.50;;
20454;SDS011;10386;54.314;10.022;2022-12-18T03:14:53;26.70;;;10.07;;
20454;SDS011;10386;54.314;10.022;2022-12-18T03:17:48;16.97;;;8.63;;
20454;SDS011;10386;54.314;10.022;2022-12-18T03:20:22;14.57;;;7.47;;
20454;SDS011;10386;54.314;10.022;2022-12-18T03:22:53;24.30;;;10.23;;
20454;SDS011;10386;54.314;10.022;2022-12-18T03:25:26;23.63;;;8.83;;
20454;SDS011;10386;54.314;10.022;2022-12-18T03:27:57;21.47;;;9.83;;
20454;SDS011;10386;54.314;10.022;2022-12-18T03:30:28;23.83;;;10.00;;
20454;SDS011;10386;54.314;10.022;2022-12-18T03:33:02;23.27;;;10.67;;
20454;SDS011;10386;54.314;10.022;2022-12-18T03:35:40;17.60;;;8.23;;
20454;SDS011;10386;54.314;10.022;2022-12-18T03:38:09;24.33;;;8.90;;
20454;SDS011;10386;54.314;10.022;2022-12-18T03:40:45;17.30;;;8.17;;
20454;SDS011;10386;54.314;10.022;2022-12-18T03:46:14;11.90;;;6.77;;
20454;SDS011;10386;54.314;10.022;2022-12-18T03:49:06;21.33;;;10.00;;
20454;SDS011;10386;54.314;10.022;2022-12-18T03:51:39;20.13;;;9.83;;
20454;SDS011;10386;54.314;10.022;2022-12-18T03:54:12;20.60;;;8.53;;
20454;SDS011;10386;54.314;10.022;2022-12-18T03:56:40;27.20;;;11.47;;
20454;SDS011;10386;54.314;10.022;2022-12-18T03:59:15;21.77;;;9.57;;
20454;SDS011;10386;54.314;10.022;2022-12-18T04:01:45;20.53;;;9.13;;
20454;SDS011;10386;54.314;10.022;2022-12-18T04:04:15;23.97;;;10.50;;
20454;SDS011;10386;54.314;10.022;2022-12-18T04:06:45;17.33;;;8.53;;
20454;SDS011;10386;54.314;10.022;2022-12-18T04:09:14;31.03;;;10.37;;
20454;SDS011;10386;54.314;10.022;2022-12-18T04:11:41;28.17;;;12.13;;
20454;SDS011;10386;54.314;10.022;2022-12-18T04:14:11;25.80;;;10.77;;
20454;SDS011;10386;54.314;10.022;2022-12-18T04:16:43;24.80;;;10.13;;
20454;SDS011;10386;54.314;10.022;2022-12-18T04:19:11;25.23;;;11.33;;
20454;SDS011;10386;54.314;10.022;2022-12-18T04:21:38;20.00;;;8.67;;
20454;SDS011;10386;54.314;10.022;2022-12-18T04:24:05;20.67;;;9.07;;
20454;SDS011;10386;54.314;10.022;2022-12-18T04:26:32;20.27;;;8.90;;
20454;SDS011;10386;54.314;10.022;2022-12-18T04:28:59;29.40;;;10.20;;
20454;SDS011;10386;54.314;10.022;2022-12-18T04:31:26;24.40;;;11.17;;
20454;SDS011;10386;54.314;10.022;2022-12-18T04:33:53;25.27;;;9.33;;
20454;SDS011;10386;54.314;10.022;2022-12-18T04:36:20;24.13;;;9.77;;
20454;SDS011;10386;54.314;10.022;2022-12-18T04:38:47;21.20;;;10.10;;
20454;SDS011;10386;54.314;10.022;2022-12-18T04:41:14;20.17;;;9.67;;
20454;SDS011;10386;54.314;10.022;2022-12-18T04:43:41;19.80;;;9.57;;
20454;SDS011;10386;54.314;10.022;2022-12-18T04:46:08;24.60;;;11.33;;
20454;SDS011;10386;54.314;10.022;2022-12-18T04:48:35;25.10;;;9.73;;
20454;SDS011;10386;54.314;10.022;2022-12-18T04:51:03;24.13;;;10.33;;
20454;SDS011;10386;54.314;10.022;2022-12-18T04:53:31;21.43;;;10.03;;
20454;SDS011;10386;54.314;10.022;2022-12-18T04:56:05;18.17;;;9.17;;
20454;SDS011;10386;54.314;10.022;2022-12-18T04:58:37;25.23;;;10.13;;
20454;SDS011;10386;54.314;10.022;2022-12-18T05:01:05;18.50;;;8.97;;
20454;SDS011;10386;54.314;10.022;2022-12-18T05:03:34;20.43;;;10.13;;
20454;SDS011;10386;54.314;10.022;2022-12-18T05:06:02;22.63;;;11.83;;
20454;SDS011;10386;54.314;10.022;2022-12-18T05:08:29;21.03;;;10.13;;
20454;SDS011;10386;54.314;10.022;2022-12-18T05:13:32;22.90;;;8.73;;
20454;SDS011;10386;54.314;10.022;2022-12-18T05:15:59;23.93;;;10.07;;
20454;SDS011;10386;54.314;10.022;2022-12-18T05:18:26;21.97;;;8.47;;
20454;SDS011;10386;54.314;10.022;2022-12-18T05:20:54;24.73;;;9.90;;
20454;SDS011;10386;54.314;10.022;2022-12-18T05:23:21;21.13;;;9.23;;
20454;SDS011;10386;54.314;10.022;2022-12-18T05:25:56;15.93;;;8.27;;
20454;SDS011;10386;54.314;10.022;2022-12-18T05:28:26;17.30;;;8.10;;
20454;SDS011;10386;54.314;10.022;2022-12-18T05:30:55;17.87;;;7.77;;
20454;SDS011;10386;54.314;10.022;2022-12-18T05:33:28;27.10;;;10.07;;
20454;SDS011;10386;54.314;10.022;2022-12-18T05:35:57;23.00;;;9.50;;
20454;SDS011;10386;54.314;10.022;2022-12-18T05:38:26;32.70;;;9.53;;
20454;SDS011;10386;54.314;10.022;2022-12-18T05:40:54;14.40;;;7.90;;
20454;SDS011;10386;54.314;10.022;2022-12-18T05:43:22;18.43;;;8.77;;
20454;SDS011;10386;54.314;10.022;2022-12-18T05:45:50;20.20;;;9.73;;
20454;SDS011;10386;54.314;10.022;2022-12-18T05:48:17;19.20;;;9.13;;
20454;SDS011;10386;54.314;10.022;2022-12-18T05:50:45;22.70;;;8.80;;
20454;SDS011;10386;54.314;10.022;2022-12-18T05:53:14;18.47;;;8.73;;
20454;SDS011;10386;54.314;10.022;2022-12-18T05:55:42;17.40;;;8.83;;
20454;SDS011;10386;54.314;10.022;2022-12-18T05:58:10;16.33;;;8.33;;
20454;SDS011;10386;54.314;10.022;2022-12-18T06:00:38;19.93;;;8.90;;
20454;SDS011;10386;54.314;10.022;2022-12-18T06:03:11;19.93;;;9.13;;
20454;SDS011;10386;54.314;10.022;2022-12-18T06:05:40;21.87;;;9.43;;
20454;SDS011;10386;54.314;10.022;2022-12-18T06:08:11;16.57;;;7.47;;
20454;SDS011;10386;54.314;10.022;2022-12-18T06:10:39;19.70;;;8.00;;
20454;SDS011;10386;54.314;10.022;2022-12-18T06:13:07;17.43;;;8.27;;
20454;SDS011;10386;54.314;10.022;2022-12-18T06:15:36;19.40;;;9.40;;
20454;SDS011;10386;54.314;10.022;2022-12-18T06:18:04;19.77;;;7.87;;
20454;SDS011;10386;54.314;10.022;2022-12-18T06:20:31;18.93;;;7.97;;
20454;SDS011;10386;54.314;10.022;2022-12-18T06:22:59;15.90;;;7.57;;
20454;SDS011;10386;54.314;10.022;2022-12-18T06:25:26;16.57;;;8.63;;
20454;SDS011;10386;54.314;10.022;2022-12-18T06:27:53;17.70;;;9.07;;
20454;SDS011;10386;54.314;10.022;2022-12-18T06:30:20;21.03;;;8.73;;
20454;SDS011;10386;54.314;10.022;2022-12-18T06:32:50;21.30;;;8.60;;
20454;SDS011;10386;54.314;10.022;2022-12-18T06:35:22;18.67;;;8.10;;
20454;SDS011;10386;54.314;10.022;2022-12-18T06:37:49;24.73;;;11.07;;
20454;SDS011;10386;54.314;10.022;2022-12-18T06:40:16;20.67;;;9.37;;
20454;SDS011;10386;54.314;10.022;2022-12-18T06:42:43;17.27;;;8.33;;
20454;SDS011;10386;54.314;10.022;2022-12-18T06:45:16;16.50;;;7.90;;
20454;SDS011;10386;54.314;10.022;2022-12-18T06:47:44;13.43;;;7.33;;
20454;SDS011;10386;54.314;10.022;2022-12-18T06:50:12;17.80;;;7.57;;
20454;SDS011;10386;54.314;10.022;2022-12-18T06:52:39;19.27;;;7.67;;
20454;SDS011;10386;54.314;10.022;2022-12-18T06:55:10;17.40;;;7.73;;
20454;SDS011;10386;54.314;10.022;2022-12-18T06:57:37;20.23;;;8.77;;
20454;SDS011;10386;54.314;10.022;2022-12-18T07:00:04;17.67;;;8.07;;
20454;SDS011;10386;54.314;10.022;2022-12-18T07:02:32;17.23;;;7.87;;
20454;SDS011;10386;54.314;10.022;2022-12-18T07:05:00;16.33;;;7.33;;
20454;SDS011;10386;54.314;10.022;2022-12-18T07:07:34;24.03;;;8.17;;
20454;SDS011;10386;54.314;10.022;2022-12-18T07:10:01;21.63;;;6.30;;
20454;SDS011;10386;54.314;10.022;2022-12-18T07:12:28;15.73;;;7.73;;
20454;SDS011;10386;54.314;10.022;2022-12-18T07:14:55;14.13;;;7.10;;
20454;SDS011;10386;54.314;10.022;2022-12-18T07:17:21;13.80;;;6.77;;
20454;SDS011;10386;54.314;10.022;2022-12-18T07:19:48;14.87;;;7.30;;
20454;SDS011;10386;54.314;10.022;2022-12-18T07:22:15;15.27;;;6.87;;
20454;SDS011;10386;54.314;10.022;2022-12-18T07:24:41;15.30;;;7.67;;
20454;SDS011;10386;54.314;10.022;2022-12-18T07:27:08;17.20;;;7.90;;
20454;SDS011;10386;54.314;10.022;2022-12-18T07:29:35;17.97;;;7.33;;
20454;SDS011;10386;54.314;10.022;2022-12-18T07:32:03;16.80;;;7.40;;
20454;SDS011;10386;54.314;10.022;2022-12-18T07:34:30;16.63;;;7.40;;
20454;SDS011;10386;54.314;10.022;2022-12-18T07:36:57;17.03;;;7.77;;
20454;SDS011;10386;54.314;10.022;2022-12-18T07:39:23;14.20;;;7.63;;
20454;SDS011;10386;54.314;10.022;2022-12-18T07:41:50;17.23;;;6.87;;
20454;SDS011;10386;54.314;10.022;2022-12-18T07:44:35;17.33;;;7.23;;
20454;SDS011;10386;54.314;10.022;2022-12-18T07:47:03;17.37;;;7.57;;
20454;SDS011;10386;54.314;10.022;2022-12-18T07:49:36;13.03;;;5.33;;
20454;SDS011;10386;54.314;10.022;2022-12-18T07:52:03;14.50;;;7.00;;
20454;SDS011;10386;54.314;10.022;2022-12-18T07:54:30;20.37;;;7.90;;
20454;SDS011;10386;54.314;10.022;2022-12-18T07:56:57;12.60;;;6.70;;
20454;SDS011;10386;54.314;10.022;2022-12-18T07:59:23;9.87;;;5.87;;
20454;SDS011;10386;54.314;10.022;2022-12-18T08:01:50;15.37;;;7.63;;
20454;SDS011;10386;54.314;10.022;2022-12-18T08:04:17;12.90;;;6.27;;
20454;SDS011;10386;54.314;10.022;2022-12-18T08:06:44;13.33;;;6.23;;
20454;SDS011;10386;54.314;10.022;2022-12-18T08:09:13;12.60;;;6.47;;
20454;SDS011;10386;54.314;10.022;2022-12-18T08:11:40;17.97;;;7.30;;
20454;SDS011;10386;54.314;10.022;2022-12-18T08:14:07;12.57;;;6.53;;
20454;SDS011;10386;54.314;10.022;2022-12-18T08:16:34;11.03;;;6.20;;
20454;SDS011;10386;54.314;10.022;2022-12-18T08:19:01;20.17;;;7.33;;
20454;SDS011;10386;54.314;10.022;2022-12-18T08:21:28;15.53;;;6.57;;
20454;SDS011;10386;54.314;10.022;2022-12-18T08:23:57;14.17;;;6.00;;
20454;SDS011;10386;54.314;10.022;2022-12-18T08:26:26;13.17;;;6.73;;
20454;SDS011;10386;54.314;10.022;2022-12-18T08:28:55;17.63;;;7.53;;
20454;SDS011;10386;54.314;10.022;2022-12-18T08:31:24;13.47;;;6.47;;
20454;SDS011;10386;54.314;10.022;2022-12-18T08:33:52;18.67;;;7.37;;
20454;SDS011;10386;54.314;10.022;2022-12-18T08:36:20;46.27;;;14.87;;
20454;SDS011;10386;54.314;10.022;2022-12-18T08:38:48;30.90;;;12.10;;
20454;SDS011;10386;54.314;10.022;2022-12-18T08:41:15;17.47;;;8.23;;
20454;SDS011;10386;54.314;10.022;2022-12-18T08:43:43;13.27;;;7.80;;
20454;SDS011;10386;54.314;10.022;2022-12-18T08:46:32;15.77;;;6.33;;
20454;SDS011;10386;54.314;10.022;2022-12-18T08:49:10;14.93;;;7.50;;
20454;SDS011;10386;54.314;10.022;2022-12-18T08:51:38;16.93;;;7.30;;
20454;SDS011;10386;54.314;10.022;2022-12-18T08:54:05;12.97;;;6.40;;
20454;SDS011;10386;54.314;10.022;2022-12-18T08:56:33;20.13;;;8.83;;
20454;SDS011;10386;54.314;10.022;2022-12-18T08:59:00;41.63;;;12.97;;
20454;SDS011;10386;54.314;10.022;2022-12-18T09:01:30;42.30;;;12.37;;
20454;SDS011;10386;54.314;10.022;2022-12-18T09:03:57;32.23;;;10.47;;
20454;SDS011;10386;54.314;10.022;2022-12-18T09:06:24;21.33;;;8.70;;
20454;SDS011;10386;54.314;10.022;2022-12-18T09:08:51;13.70;;;7.10;;
20454;SDS011;10386;54.314;10.022;2022-12-18T09:11:22;15.40;;;8.00;;
20454;SDS011;10386;54.314;10.022;2022-12-18T09:13:51;16.47;;;7.13;;
20454;SDS011;10386;54.314;10.022;2022-12-18T09:16:19;20.57;;;8.20;;
20454;SDS011;10386;54.314;10.022;2022-12-18T09:18:50;14.20;;;7.23;;
20454;SDS011;10386;54.314;10.022;2022-12-18T09:21:20;14.10;;;6.87;;
20454;SDS011;10386;54.314;10.022;2022-12-18T09:23:50;19.93;;;8.40;;
20454;SDS011;10386;54.314;10.022;2022-12-18T09:26:18;16.27;;;10.30;;
20454;SDS011;10386;54.314;10.022;2022-12-18T09:28:45;15.17;;;7.63;;
20454;SDS011;10386;54.314;10.022;2022-12-18T09:31:15;14.83;;;5.97;;
20454;SDS011;10386;54.314;10.022;2022-12-18T09:33:45;16.57;;;7.00;;
20454;SDS011;10386;54.314;10.022;2022-12-18T09:36:13;22.73;;;8.83;;
20454;SDS011;10386;54.314;10.022;2022-12-18T09:38:41;15.20;;;7.80;;
20454;SDS011;10386;54.314;10.022;2022-12-18T09:47:20;16.77;;;7.33;;
20454;SDS011;10386;54.314;10.022;2022-12-18T09:49:47;14.47;;;8.23;;
20454;SDS011;10386;54.314;10.022;2022-12-18T09:55:03;15.83;;;7.50;;
20454;SDS011;10386;54.314;10.022;2022-12-18T09:57:32;14.20;;;7.70;;
20454;SDS011;10386;54.314;10.022;2022-12-18T10:00:15;29.90;;;12.73;;
20454;SDS011;10386;54.314;10.022;2022-12-18T10:02:45;28.50;;;10.83;;
20454;SDS011;10386;54.314;10.022;2022-12-18T10:05:14;36.03;;;11.27;;
20454;SDS011;10386;54.314;10.022;2022-12-18T10:10:46;21.50;;;7.47;;
20454;SDS011;10386;54.314;10.022;2022-12-18T10:18:46;16.23;;;8.37;;
20454;SDS011;10386;54.314;10.022;2022-12-18T10:21:37;18.40;;;9.10;;
20454;SDS011;10386;54.314;10.022;2022-12-18T10:27:15;18.97;;;9.33;;
20454;SDS011;10386;54.314;10.022;2022-12-18T10:29:44;20.57;;;9.20;;
20454;SDS011;10386;54.314;10.022;2022-12-18T10:32:16;21.73;;;8.90;;
20454;SDS011;10386;54.314;10.022;2022-12-18T10:34:48;19.40;;;8.50;;
20454;SDS011;10386;54.314;10.022;2022-12-18T10:37:27;19.20;;;9.47;;
20454;SDS011;10386;54.314;10.022;2022-12-18T10:42:47;17.37;;;9.07;;
20454;SDS011;10386;54.314;10.022;2022-12-18T10:45:29;19.30;;;8.73;;
20454;SDS011;10386;54.314;10.022;2022-12-18T10:47:55;17.83;;;9.37;;
20454;SDS011;10386;54.314;10.022;2022-12-18T10:50:24;22.00;;;9.13;;
20454;SDS011;10386;54.314;10.022;2022-12-18T10:53:23;18.10;;;8.97;;
20454;SDS011;10386;54.314;10.022;2022-12-18T10:55:55;16.60;;;9.20;;
20454;SDS011;10386;54.314;10.022;2022-12-18T10:58:25;17.07;;;9.17;;
20454;SDS011;10386;54.314;10.022;2022-12-18T11:03:43;17.30;;;9.10;;
20454;SDS011;10386;54.314;10.022;2022-12-18T11:06:13;28.13;;;10.60;;
20454;SDS011;10386;54.314;10.022;2022-12-18T11:08:42;19.73;;;9.97;;
20454;SDS011;10386;54.314;10.022;2022-12-18T11:11:20;22.37;;;9.77;;
20454;SDS011;10386;54.314;10.022;2022-12-18T11:14:04;21.30;;;9.53;;
20454;SDS011;10386;54.314;10.022;2022-12-18T11:16:34;18.40;;;9.53;;
20454;SDS011;10386;54.314;10.022;2022-12-18T11:19:36;19.67;;;10.03;;
20454;SDS011;10386;54.314;10.022;2022-12-18T11:22:20;23.83;;;9.53;;
20454;SDS011;10386;54.314;10.022;2022-12-18T11:27:49;18.10;;;9.00;;
20454;SDS011;10386;54.314;10.022;2022-12-18T11:30:23;22.37;;;9.77;;
20454;SDS011;10386;54.314;10.022;2022-12-18T11:32:51;27.47;;;12.43;;
20454;SDS011;10386;54.314;10.022;2022-12-18T11:38:00;22.03;;;9.93;;
20454;SDS011;10386;54.314;10.022;2022-12-18T11:40:34;22.97;;;10.30;;
20454;SDS011;10386;54.314;10.022;2022-12-18T11:43:09;18.67;;;9.50;;
20454;SDS011;10386;54.314;10.022;2022-12-18T11:51:43;20.17;;;9.97;;
20454;SDS011;10386;54.314;10.022;2022-12-18T11:54:21;18.30;;;9.57;;
20454;SDS011;10386;54.314;10.022;2022-12-18T12:21:40;22.17;;;9.63;;
20454;SDS011;10386;54.314;10.022;2022-12-18T12:30:13;21.63;;;9.57;;
20454;SDS011;10386;54.314;10.022;2022-12-18T12:32:45;19.70;;;8.90;;
20454;SDS011;10386;54.314;10.022;2022-12-18T12:35:29;16.67;;;8.77;;
20454;SDS011;10386;54.314;10.022;2022-12-18T12:40:57;20.47;;;8.73;;
20454;SDS011;10386;54.314;10.022;2022-12-18T12:43:37;18.80;;;8.80;;
20454;SDS011;10386;54.314;10.022;2022-12-18T12:46:17;18.13;;;7.83;;
20454;SDS011;10386;54.314;10.022;2022-12-18T12:48:49;21.40;;;8.97;;
20454;SDS011;10386;54.314;10.022;2022-12-18T12:51:26;15.87;;;8.07;;
20454;SDS011;10386;54.314;10.022;2022-12-18T12:53:58;15.40;;;8.73;;
20454;SDS011;10386;54.314;10.022;2022-12-18T12:56:37;19.63;;;9.47;;
20454;SDS011;10386;54.314;10.022;2022-12-18T12:59:37;19.70;;;9.83;;
20454;SDS011;10386;54.314;10.022;2022-12-18T13:02:35;18.57;;;9.03;;
20454;SDS011;10386;54.314;10.022;2022-12-18T13:07:59;21.50;;;9.67;;
20454;SDS011;10386;54.314;10.022;2022-12-18T13:10:41;16.73;;;8.90;;
20454;SDS011;10386;54.314;10.022;2022-12-18T13:15:47;18.90;;;9.13;;
20454;SDS011;10386;54.314;10.022;2022-12-18T13:18:29;18.57;;;8.47;;
20454;SDS011;10386;54.314;10.022;2022-12-18T13:23:33;16.07;;;8.13;;
20454;SDS011;10386;54.314;10.022;2022-12-18T13:26:48;21.37;;;9.10;;
20454;SDS011;10386;54.314;10.022;2022-12-18T13:28:54;19.60;;;9.10;;
20454;SDS011;10386;54.314;10.022;2022-12-18T13:33:49;17.97;;;8.23;;
20454;SDS011;10386;54.314;10.022;2022-12-18T13:36:37;17.67;;;8.67;;
20454;SDS011;10386;54.314;10.022;2022-12-18T13:39:20;17.60;;;8.87;;
20454;SDS011;10386;54.314;10.022;2022-12-18T13:42:38;20.40;;;9.17;;
20454;SDS011;10386;54.314;10.022;2022-12-18T13:45:31;30.40;;;12.07;;
20454;SDS011;10386;54.314;10.022;2022-12-18T13:48:16;23.20;;;9.43;;
20454;SDS011;10386;54.314;10.022;2022-12-18T13:50:49;22.00;;;9.70;;
20454;SDS011;10386;54.314;10.022;2022-12-18T13:53:23;22.17;;;9.37;;
20454;SDS011;10386;54.314;10.022;2022-12-18T13:55:54;24.00;;;10.03;;
20454;SDS011;10386;54.314;10.022;2022-12-18T13:58:22;23.93;;;9.50;;
20454;SDS011;10386;54.314;10.022;2022-12-18T14:00:49;26.30;;;11.00;;
20454;SDS011;10386;54.314;10.022;2022-12-18T14:03:19;16.17;;;9.87;;
20454;SDS011;10386;54.314;10.022;2022-12-18T14:05:58;27.77;;;10.53;;
20454;SDS011;10386;54.314;10.022;2022-12-18T14:08:41;24.43;;;9.53;;
20454;SDS011;10386;54.314;10.022;2022-12-18T14:11:18;26.10;;;10.53;;
20454;SDS011;10386;54.314;10.022;2022-12-18T14:13:48;20.70;;;10.20;;
20454;SDS011;10386;54.314;10.022;2022-12-18T14:16:16;17.67;;;9.77;;
20454;SDS011;10386;54.314;10.022;2022-12-18T14:21:30;22.93;;;10.40;;
20454;SDS011;10386;54.314;10.022;2022-12-18T14:24:04;23.07;;;11.17;;
20454;SDS011;10386;54.314;10.022;2022-12-18T14:26:45;29.23;;;13.47;;
20454;SDS011;10386;54.314;10.022;2022-12-18T14:29:19;22.50;;;10.70;;
20454;SDS011;10386;54.314;10.022;2022-12-18T14:32:03;25.27;;;10.77;;
20454;SDS011;10386;54.314;10.022;2022-12-18T14:34:44;23.37;;;10.47;;
20454;SDS011;10386;54.314;10.022;2022-12-18T14:37:20;20.50;;;9.17;;
20454;SDS011;10386;54.314;10.022;2022-12-18T14:39:56;27.40;;;10.50;;
20454;SDS011;10386;54.314;10.022;2022-12-18T14:42:35;25.53;;;9.90;;
20454;SDS011;10386;54.314;10.022;2022-12-18T14:48:31;32.53;;;10.60;;
20454;SDS011;10386;54.314;10.022;2022-12-18T14:51:05;22.80;;;9.17;;
20454;SDS011;10386;54.314;10.022;2022-12-18T14:53:39;25.43;;;10.43;;
20454;SDS011;10386;54.314;10.022;2022-12-18T14:56:15;38.40;;;12.77;;
20454;SDS011;10386;54.314;10.022;2022-12-18T14:59:04;38.20;;;12.73;;
20454;SDS011;10386;54.314;10.022;2022-12-18T15:07:06;31.17;;;11.57;;
20454;SDS011;10386;54.314;10.022;2022-12-18T15:09:34;31.03;;;9.77;;
20454;SDS011;10386;54.314;10.022;2022-12-18T15:12:01;29.40;;;10.07;;
20454;SDS011;10386;54.314;10.022;2022-12-18T15:14:32;26.70;;;9.27;;
20454;SDS011;10386;54.314;10.022;2022-12-18T15:17:02;27.07;;;9.13;;
20454;SDS011;10386;54.314;10.022;2022-12-18T15:21:59;28.13;;;9.70;;
20454;SDS011;10386;54.314;10.022;2022-12-18T15:24:32;35.42;;;12.85;;
20454;SDS011;10386;54.314;10.022;2022-12-18T15:26:59;37.03;;;12.17;;
20454;SDS011;10386;54.314;10.022;2022-12-18T15:29:26;30.57;;;11.23;;
20454;SDS011;10386;54.314;10.022;2022-12-18T15:32:00;31.43;;;10.23;;
20454;SDS011;10386;54.314;10.022;2022-12-18T15:34:29;28.60;;;11.20;;
20454;SDS011;10386;54.314;10.022;2022-12-18T15:36:57;26.13;;;10.03;;
20454;SDS011;10386;54.314;10.022;2022-12-18T15:39:24;29.73;;;10.47;;
20454;SDS011;10386;54.314;10.022;2022-12-18T15:41:51;27.10;;;9.00;;
20454;SDS011;10386;54.314;10.022;2022-12-18T15:44:36;31.33;;;10.90;;
20454;SDS011;10386;54.314;10.022;2022-12-18T15:47:07;27.37;;;9.50;;
20454;SDS011;10386;54.314;10.022;2022-12-18T15:49:36;34.53;;;11.87;;
20454;SDS011;10386;54.314;10.022;2022-12-18T15:52:03;23.93;;;9.03;;
20454;SDS011;10386;54.314;10.022;2022-12-18T15:54:29;27.20;;;9.80;;
20454;SDS011;10386;54.314;10.022;2022-12-18T15:57:15;28.97;;;9.00;;
20454;SDS011;10386;54.314;10.022;2022-12-18T15:59:51;34.57;;;10.50;;
20454;SDS011;10386;54.314;10.022;2022-12-18T16:02:20;31.93;;;11.40;;
20454;SDS011;10386;54.314;10.022;2022-12-18T16:04:52;34.97;;;11.30;;
20454;SDS011;10386;54.314;10.022;2022-12-18T16:07:20;29.60;;;9.93;;
20454;SDS011;10386;54.314;10.022;2022-12-18T16:09:50;38.40;;;12.23;;
20454;SDS011;10386;54.314;10.022;2022-12-18T16:12:18;31.17;;;10.03;;
20454;SDS011;10386;54.314;10.022;2022-12-18T16:14:48;34.47;;;10.30;;
20454;SDS011;10386;54.314;10.022;2022-12-18T16:17:15;27.77;;;11.17;;
20454;SDS011;10386;54.314;10.022;2022-12-18T16:19:42;23.23;;;8.33;;
20454;SDS011;10386;54.314;10.022;2022-12-18T16:22:19;37.77;;;11.50;;
20454;SDS011;10386;54.314;10.022;2022-12-18T16:24:49;30.07;;;10.13;;
20454;SDS011;10386;54.314;10.022;2022-12-18T16:27:16;32.70;;;11.20;;
20454;SDS011;10386;54.314;10.022;2022-12-18T16:29:43;25.27;;;8.50;;
20454;SDS011;10386;54.314;10.022;2022-12-18T16:32:14;31.93;;;10.07;;
20454;SDS011;10386;54.314;10.022;2022-12-18T16:34:43;31.97;;;10.83;;
20454;SDS011;10386;54.314;10.022;2022-12-18T16:37:11;37.27;;;11.03;;
20454;SDS011;10386;54.314;10.022;2022-12-18T16:39:39;33.90;;;12.30;;
20454;SDS011;10386;54.314;10.022;2022-12-18T16:42:18;35.93;;;12.50;;